sensor_id;sensor_type;location;lat;lon;timestamp;P1;durP1;ratioP1;P2;durP2;ratioP2
64923;SDS011;51436;44.692;39.214;2023-02-03T00:01:58;13.35;;;7.70;;
64923;SDS011;51436;44.692;39.214;2023-02-03T00:04:25;16.17;;;9.43;;
64923;SDS011;51436;44.692;39.214;2023-02-03T00:06:51;14.82;;;9.38;;
64923;SDS011;51436;44.692;39.214;2023-02-03T00:09:18;17.08;;;9.15;;
64923;SDS011;51436;44.692;39.214;2023-02-03T00:11:45;15.07;;;6.65;;
64923;SDS011;51436;44.692;39.214;2023-02-03T00:14:11;13.45;;;7.07;;
64923;SDS011;51436;44.692;39.214;2023-02-03T00:16:38;11.55;;;7.32;;
64923;SDS011;51436;44.692;39.214;2023-02-03T00:19:05;12.85;;;8.27;;
64923;SDS011;51436;44.692;39.214;2023-02-03T00:21:31;10.00;;;7.15;;
64923;SDS011;51436;44.692;39.214;2023-02-03T00:23:58;12.45;;;7.07;;
64923;SDS011;51436;44.692;39.214;2023-02-03T00:26:24;15.73;;;8.98;;
64923;SDS011;51436;44.692;39.214;2023-02-03T00:28:53;15.35;;;8.90;;
64923;SDS011;51436;44.692;39.214;2023-02-03T00:31:20;15.32;;;7.57;;
64923;SDS011;51436;44.692;39.214;2023-02-03T00:33:57;13.90;;;7.93;;
64923;SDS011;51436;44.692;39.214;2023-02-03T00:36:24;12.07;;;7.72;;
64923;SDS011;51436;44.692;39.214;2023-02-03T00:38:51;14.73;;;7.68;;
64923;SDS011;51436;44.692;39.214;2023-02-03T00:41:19;10.30;;;6.18;;
64923;SDS011;51436;44.692;39.214;2023-02-03T00:43:46;11.25;;;5.40;;
64923;SDS011;51436;44.692;39.214;2023-02-03T00:46:14;7.57;;;5.45;;
64923;SDS011;51436;44.692;39.214;2023-02-03T00:48:40;11.35;;;5.13;;
64923;SDS011;51436;44.692;39.214;2023-02-03T00:51:07;6.90;;;4.65;;
64923;SDS011;51436;44.692;39.214;2023-02-03T00:53:33;7.82;;;5.53;;
64923;SDS011;51436;44.692;39.214;2023-02-03T00:56:00;7.57;;;5.10;;
64923;SDS011;51436;44.692;39.214;2023-02-03T00:58:26;9.32;;;5.43;;
64923;SDS011;51436;44.692;39.214;2023-02-03T01:00:54;8.40;;;5.20;;
64923;SDS011;51436;44.692;39.214;2023-02-03T01:03:21;10.35;;;5.57;;
64923;SDS011;51436;44.692;39.214;2023-02-03T01:05:48;14.48;;;5.75;;
64923;SDS011;51436;44.692;39.214;2023-02-03T01:08:14;10.20;;;6.10;;
64923;SDS011;51436;44.692;39.214;2023-02-03T01:10:41;10.13;;;7.03;;
64923;SDS011;51436;44.692;39.214;2023-02-03T01:13:07;15.15;;;8.93;;
64923;SDS011;51436;44.692;39.214;2023-02-03T01:15:34;16.48;;;7.55;;
64923;SDS011;51436;44.692;39.214;2023-02-03T01:18:00;14.52;;;7.93;;
64923;SDS011;51436;44.692;39.214;2023-02-03T01:20:27;13.13;;;7.07;;
64923;SDS011;51436;44.692;39.214;2023-02-03T01:22:53;11.32;;;6.53;;
64923;SDS011;51436;44.692;39.214;2023-02-03T01:25:20;9.15;;;6.25;;
64923;SDS011;51436;44.692;39.214;2023-02-03T01:27:46;11.25;;;6.45;;
64923;SDS011;51436;44.692;39.214;2023-02-03T01:30:12;16.02;;;8.27;;
64923;SDS011;51436;44.692;39.214;2023-02-03T01:32:39;14.93;;;8.50;;
64923;SDS011;51436;44.692;39.214;2023-02-03T01:35:06;23.45;;;11.50;;
64923;SDS011;51436;44.692;39.214;2023-02-03T01:37:33;19.90;;;9.95;;
64923;SDS011;51436;44.692;39.214;2023-02-03T01:39:59;24.77;;;10.60;;
64923;SDS011;51436;44.692;39.214;2023-02-03T01:42:25;19.63;;;9.75;;
64923;SDS011;51436;44.692;39.214;2023-02-03T01:44:57;21.20;;;8.55;;
64923;SDS011;51436;44.692;39.214;2023-02-03T01:52:40;17.80;;;9.50;;
64923;SDS011;51436;44.692;39.214;2023-02-03T01:55:09;18.27;;;9.63;;
64923;SDS011;51436;44.692;39.214;2023-02-03T01:57:46;19.08;;;11.00;;
64923;SDS011;51436;44.692;39.214;2023-02-03T02:00:25;30.13;;;13.18;;
64923;SDS011;51436;44.692;39.214;2023-02-03T02:02:54;26.95;;;12.55;;
64923;SDS011;51436;44.692;39.214;2023-02-03T02:07:58;25.30;;;12.73;;
64923;SDS011;51436;44.692;39.214;2023-02-03T02:10:31;29.23;;;13.57;;
64923;SDS011;51436;44.692;39.214;2023-02-03T02:12:58;34.05;;;13.23;;
64923;SDS011;51436;44.692;39.214;2023-02-03T02:15:30;22.10;;;11.70;;
64923;SDS011;51436;44.692;39.214;2023-02-03T02:26:20;23.00;;;12.25;;
64923;SDS011;51436;44.692;39.214;2023-02-03T02:32:05;24.13;;;12.30;;
64923;SDS011;51436;44.692;39.214;2023-02-03T02:43:09;27.55;;;12.40;;
64923;SDS011;51436;44.692;39.214;2023-02-03T02:48:35;31.45;;;13.60;;
64923;SDS011;51436;44.692;39.214;2023-02-03T02:51:04;20.63;;;10.48;;
64923;SDS011;51436;44.692;39.214;2023-02-03T02:53:36;21.90;;;10.82;;
64923;SDS011;51436;44.692;39.214;2023-02-03T02:56:06;21.02;;;9.82;;
64923;SDS011;51436;44.692;39.214;2023-02-03T02:58:34;25.63;;;9.80;;
64923;SDS011;51436;44.692;39.214;2023-02-03T03:01:04;24.58;;;12.00;;
64923;SDS011;51436;44.692;39.214;2023-02-03T03:03:36;21.20;;;12.07;;
64923;SDS011;51436;44.692;39.214;2023-02-03T03:06:08;21.27;;;10.90;;
64923;SDS011;51436;44.692;39.214;2023-02-03T03:08:45;17.50;;;8.85;;
64923;SDS011;51436;44.692;39.214;2023-02-03T03:11:15;20.77;;;10.32;;
64923;SDS011;51436;44.692;39.214;2023-02-03T03:13:45;20.40;;;10.77;;
64923;SDS011;51436;44.692;39.214;2023-02-03T03:27:36;20.00;;;9.52;;
64923;SDS011;51436;44.692;39.214;2023-02-03T03:30:13;18.08;;;8.93;;
64923;SDS011;51436;44.692;39.214;2023-02-03T03:32:47;25.13;;;10.82;;
64923;SDS011;51436;44.692;39.214;2023-02-03T03:35:14;21.17;;;10.07;;
64923;SDS011;51436;44.692;39.214;2023-02-03T03:37:48;17.48;;;9.57;;
64923;SDS011;51436;44.692;39.214;2023-02-03T03:40:23;22.85;;;11.63;;
64923;SDS011;51436;44.692;39.214;2023-02-03T03:43:07;25.45;;;10.20;;
64923;SDS011;51436;44.692;39.214;2023-02-03T03:51:18;20.67;;;10.15;;
64923;SDS011;51436;44.692;39.214;2023-02-03T03:53:52;20.23;;;10.20;;
64923;SDS011;51436;44.692;39.214;2023-02-03T03:56:25;22.30;;;11.70;;
64923;SDS011;51436;44.692;39.214;2023-02-03T03:58:55;25.88;;;10.70;;
64923;SDS011;51436;44.692;39.214;2023-02-03T04:01:24;18.02;;;10.77;;
64923;SDS011;51436;44.692;39.214;2023-02-03T04:03:53;21.67;;;9.98;;
64923;SDS011;51436;44.692;39.214;2023-02-03T04:06:23;21.08;;;10.70;;
64923;SDS011;51436;44.692;39.214;2023-02-03T04:08:49;20.48;;;10.00;;
64923;SDS011;51436;44.692;39.214;2023-02-03T04:11:15;21.17;;;9.65;;
64923;SDS011;51436;44.692;39.214;2023-02-03T04:14:02;18.00;;;9.73;;
64923;SDS011;51436;44.692;39.214;2023-02-03T04:16:28;21.50;;;10.57;;
64923;SDS011;51436;44.692;39.214;2023-02-03T04:18:55;26.02;;;10.82;;
64923;SDS011;51436;44.692;39.214;2023-02-03T04:21:21;24.25;;;8.50;;
64923;SDS011;51436;44.692;39.214;2023-02-03T04:23:47;21.05;;;10.05;;
64923;SDS011;51436;44.692;39.214;2023-02-03T04:26:15;18.65;;;8.65;;
64923;SDS011;51436;44.692;39.214;2023-02-03T04:28:42;18.17;;;9.95;;
64923;SDS011;51436;44.692;39.214;2023-02-03T04:31:09;21.55;;;10.10;;
64923;SDS011;51436;44.692;39.214;2023-02-03T04:33:35;20.30;;;9.13;;
64923;SDS011;51436;44.692;39.214;2023-02-03T04:36:02;22.65;;;9.02;;
64923;SDS011;51436;44.692;39.214;2023-02-03T04:38:28;38.30;;;9.73;;
64923;SDS011;51436;44.692;39.214;2023-02-03T04:40:54;28.33;;;8.65;;
64923;SDS011;51436;44.692;39.214;2023-02-03T04:43:21;17.67;;;8.88;;
64923;SDS011;51436;44.692;39.214;2023-02-03T04:45:47;23.20;;;8.70;;
64923;SDS011;51436;44.692;39.214;2023-02-03T04:48:13;26.23;;;8.55;;
64923;SDS011;51436;44.692;39.214;2023-02-03T04:50:40;21.90;;;7.53;;
64923;SDS011;51436;44.692;39.214;2023-02-03T04:53:06;14.30;;;7.85;;
64923;SDS011;51436;44.692;39.214;2023-02-03T04:55:33;53.22;;;9.52;;
64923;SDS011;51436;44.692;39.214;2023-02-03T04:57:59;50.25;;;6.95;;
64923;SDS011;51436;44.692;39.214;2023-02-03T05:00:26;35.10;;;8.63;;
64923;SDS011;51436;44.692;39.214;2023-02-03T05:02:53;24.65;;;8.02;;
64923;SDS011;51436;44.692;39.214;2023-02-03T05:05:20;24.73;;;8.40;;
64923;SDS011;51436;44.692;39.214;2023-02-03T05:07:46;17.38;;;9.05;;
64923;SDS011;51436;44.692;39.214;2023-02-03T05:10:12;41.45;;;9.52;;
64923;SDS011;51436;44.692;39.214;2023-02-03T05:12:39;16.25;;;7.18;;
64923;SDS011;51436;44.692;39.214;2023-02-03T05:15:05;13.70;;;7.57;;
64923;SDS011;51436;44.692;39.214;2023-02-03T05:17:32;37.38;;;8.45;;
64923;SDS011;51436;44.692;39.214;2023-02-03T05:20:03;12.77;;;7.47;;
64923;SDS011;51436;44.692;39.214;2023-02-03T05:22:30;14.02;;;8.23;;
64923;SDS011;51436;44.692;39.214;2023-02-03T05:24:57;14.60;;;7.03;;
64923;SDS011;51436;44.692;39.214;2023-02-03T05:27:23;15.73;;;9.05;;
64923;SDS011;51436;44.692;39.214;2023-02-03T05:29:49;15.88;;;7.43;;
64923;SDS011;51436;44.692;39.214;2023-02-03T05:32:16;13.10;;;7.85;;
64923;SDS011;51436;44.692;39.214;2023-02-03T05:34:42;15.02;;;7.97;;
64923;SDS011;51436;44.692;39.214;2023-02-03T05:37:08;15.88;;;8.27;;
64923;SDS011;51436;44.692;39.214;2023-02-03T05:39:35;15.38;;;8.32;;
64923;SDS011;51436;44.692;39.214;2023-02-03T05:42:01;18.98;;;7.68;;
64923;SDS011;51436;44.692;39.214;2023-02-03T05:44:28;17.25;;;8.73;;
64923;SDS011;51436;44.692;39.214;2023-02-03T05:46:56;16.65;;;8.07;;
64923;SDS011;51436;44.692;39.214;2023-02-03T05:49:24;15.45;;;8.27;;
64923;SDS011;51436;44.692;39.214;2023-02-03T05:51:51;16.88;;;7.57;;
64923;SDS011;51436;44.692;39.214;2023-02-03T05:54:18;16.85;;;8.45;;
64923;SDS011;51436;44.692;39.214;2023-02-03T05:56:45;14.85;;;7.75;;
64923;SDS011;51436;44.692;39.214;2023-02-03T05:59:11;12.18;;;6.93;;
64923;SDS011;51436;44.692;39.214;2023-02-03T06:01:38;12.25;;;7.45;;
64923;SDS011;51436;44.692;39.214;2023-02-03T06:04:04;20.98;;;8.75;;
64923;SDS011;51436;44.692;39.214;2023-02-03T06:06:31;16.45;;;8.25;;
64923;SDS011;51436;44.692;39.214;2023-02-03T06:09:02;15.35;;;8.32;;
64923;SDS011;51436;44.692;39.214;2023-02-03T06:11:30;14.02;;;8.05;;
64923;SDS011;51436;44.692;39.214;2023-02-03T06:13:58;15.05;;;8.73;;
64923;SDS011;51436;44.692;39.214;2023-02-03T06:16:25;16.98;;;8.32;;
64923;SDS011;51436;44.692;39.214;2023-02-03T06:18:53;14.93;;;7.88;;
64923;SDS011;51436;44.692;39.214;2023-02-03T06:21:24;12.50;;;6.72;;
64923;SDS011;51436;44.692;39.214;2023-02-03T06:23:50;11.38;;;5.93;;
64923;SDS011;51436;44.692;39.214;2023-02-03T06:26:16;14.48;;;7.78;;
64923;SDS011;51436;44.692;39.214;2023-02-03T06:28:43;12.98;;;6.97;;
64923;SDS011;51436;44.692;39.214;2023-02-03T06:31:09;14.15;;;7.57;;
64923;SDS011;51436;44.692;39.214;2023-02-03T06:33:35;14.40;;;8.00;;
64923;SDS011;51436;44.692;39.214;2023-02-03T06:36:02;14.70;;;8.38;;
64923;SDS011;51436;44.692;39.214;2023-02-03T06:38:28;17.13;;;8.75;;
64923;SDS011;51436;44.692;39.214;2023-02-03T06:40:55;30.70;;;14.93;;
64923;SDS011;51436;44.692;39.214;2023-02-03T06:43:21;66.47;;;27.90;;
64923;SDS011;51436;44.692;39.214;2023-02-03T06:45:47;48.72;;;22.90;;
64923;SDS011;51436;44.692;39.214;2023-02-03T06:48:14;26.30;;;13.32;;
64923;SDS011;51436;44.692;39.214;2023-02-03T06:50:41;24.45;;;12.68;;
64923;SDS011;51436;44.692;39.214;2023-02-03T06:53:07;17.17;;;10.23;;
64923;SDS011;51436;44.692;39.214;2023-02-03T06:55:34;22.83;;;12.10;;
64923;SDS011;51436;44.692;39.214;2023-02-03T06:58:00;19.65;;;10.13;;
64923;SDS011;51436;44.692;39.214;2023-02-03T07:00:27;24.27;;;9.90;;
64923;SDS011;51436;44.692;39.214;2023-02-03T07:02:54;14.73;;;8.50;;
64923;SDS011;51436;44.692;39.214;2023-02-03T07:05:22;14.52;;;6.80;;
64923;SDS011;51436;44.692;39.214;2023-02-03T07:07:49;13.15;;;6.95;;
64923;SDS011;51436;44.692;39.214;2023-02-03T07:10:16;13.70;;;6.53;;
64923;SDS011;51436;44.692;39.214;2023-02-03T07:12:43;10.00;;;5.90;;
64923;SDS011;51436;44.692;39.214;2023-02-03T07:15:09;9.57;;;5.63;;
64923;SDS011;51436;44.692;39.214;2023-02-03T07:17:36;11.40;;;6.25;;
64923;SDS011;51436;44.692;39.214;2023-02-03T07:20:04;9.70;;;5.32;;
64923;SDS011;51436;44.692;39.214;2023-02-03T07:22:30;10.55;;;6.28;;
64923;SDS011;51436;44.692;39.214;2023-02-03T07:24:56;19.52;;;7.82;;
64923;SDS011;51436;44.692;39.214;2023-02-03T07:27:23;21.33;;;10.25;;
64923;SDS011;51436;44.692;39.214;2023-02-03T07:29:50;19.00;;;10.70;;
64923;SDS011;51436;44.692;39.214;2023-02-03T07:32:16;15.10;;;8.52;;
64923;SDS011;51436;44.692;39.214;2023-02-03T07:34:43;21.27;;;8.40;;
64923;SDS011;51436;44.692;39.214;2023-02-03T07:37:09;13.85;;;8.13;;
64923;SDS011;51436;44.692;39.214;2023-02-03T07:39:35;15.90;;;7.63;;
64923;SDS011;51436;44.692;39.214;2023-02-03T07:42:02;19.90;;;8.90;;
64923;SDS011;51436;44.692;39.214;2023-02-03T07:44:29;16.25;;;8.57;;
64923;SDS011;51436;44.692;39.214;2023-02-03T07:46:55;17.75;;;10.77;;
64923;SDS011;51436;44.692;39.214;2023-02-03T07:49:22;19.88;;;8.35;;
64923;SDS011;51436;44.692;39.214;2023-02-03T07:51:48;13.52;;;8.48;;
64923;SDS011;51436;44.692;39.214;2023-02-03T07:54:14;20.50;;;9.82;;
64923;SDS011;51436;44.692;39.214;2023-02-03T07:56:41;10.63;;;6.78;;
64923;SDS011;51436;44.692;39.214;2023-02-03T07:59:08;11.77;;;6.40;;
64923;SDS011;51436;44.692;39.214;2023-02-03T08:01:34;13.32;;;6.00;;
64923;SDS011;51436;44.692;39.214;2023-02-03T08:04:00;10.45;;;5.70;;
64923;SDS011;51436;44.692;39.214;2023-02-03T08:06:29;10.77;;;6.80;;
64923;SDS011;51436;44.692;39.214;2023-02-03T08:08:56;10.18;;;5.85;;
64923;SDS011;51436;44.692;39.214;2023-02-03T08:11:23;12.73;;;5.85;;
64923;SDS011;51436;44.692;39.214;2023-02-03T08:13:49;8.75;;;4.65;;
64923;SDS011;51436;44.692;39.214;2023-02-03T08:16:15;8.43;;;5.22;;
64923;SDS011;51436;44.692;39.214;2023-02-03T08:18:42;7.60;;;3.95;;
64923;SDS011;51436;44.692;39.214;2023-02-03T08:21:08;4.90;;;3.40;;
64923;SDS011;51436;44.692;39.214;2023-02-03T08:23:34;6.65;;;3.10;;
64923;SDS011;51436;44.692;39.214;2023-02-03T08:26:01;4.93;;;2.78;;
64923;SDS011;51436;44.692;39.214;2023-02-03T08:28:27;4.35;;;2.92;;
64923;SDS011;51436;44.692;39.214;2023-02-03T08:30:53;5.85;;;2.90;;
64923;SDS011;51436;44.692;39.214;2023-02-03T08:33:21;5.13;;;2.65;;
64923;SDS011;51436;44.692;39.214;2023-02-03T08:35:47;4.57;;;2.42;;
64923;SDS011;51436;44.692;39.214;2023-02-03T08:38:15;0.98;;;0.95;;
64923;SDS011;51436;44.692;39.214;2023-02-03T08:40:41;0.70;;;0.70;;
64923;SDS011;51436;44.692;39.214;2023-02-03T08:43:08;0.95;;;0.70;;
64923;SDS011;51436;44.692;39.214;2023-02-03T08:45:34;1.42;;;1.33;;
64923;SDS011;51436;44.692;39.214;2023-02-03T08:48:01;1.20;;;0.93;;
64923;SDS011;51436;44.692;39.214;2023-02-03T08:50:27;1.10;;;1.00;;
64923;SDS011;51436;44.692;39.214;2023-02-03T08:52:53;2.88;;;1.48;;
64923;SDS011;51436;44.692;39.214;2023-02-03T08:55:20;3.08;;;1.88;;
64923;SDS011;51436;44.692;39.214;2023-02-03T08:57:46;3.88;;;2.30;;
64923;SDS011;51436;44.692;39.214;2023-02-03T09:00:12;5.40;;;3.15;;
64923;SDS011;51436;44.692;39.214;2023-02-03T09:02:39;4.72;;;2.72;;
64923;SDS011;51436;44.692;39.214;2023-02-03T09:05:06;3.10;;;2.53;;
64923;SDS011;51436;44.692;39.214;2023-02-03T09:07:32;4.35;;;2.28;;
64923;SDS011;51436;44.692;39.214;2023-02-03T09:09:59;1.50;;;1.40;;
64923;SDS011;51436;44.692;39.214;2023-02-03T09:12:25;0.22;;;0.22;;
64923;SDS011;51436;44.692;39.214;2023-02-03T09:14:51;0.50;;;0.50;;
64923;SDS011;51436;44.692;39.214;2023-02-03T09:17:18;0.50;;;0.40;;
64923;SDS011;51436;44.692;39.214;2023-02-03T09:19:44;2.22;;;0.60;;
64923;SDS011;51436;44.692;39.214;2023-02-03T09:22:13;0.57;;;0.57;;
64923;SDS011;51436;44.692;39.214;2023-02-03T09:24:39;0.28;;;0.28;;
64923;SDS011;51436;44.692;39.214;2023-02-03T09:38:26;0.68;;;0.50;;
64923;SDS011;51436;44.692;39.214;2023-02-03T09:40:58;1.08;;;0.20;;
64923;SDS011;51436;44.692;39.214;2023-02-03T09:46:40;0.52;;;0.52;;
64923;SDS011;51436;44.692;39.214;2023-02-03T09:49:23;0.30;;;0.30;;
64923;SDS011;51436;44.692;39.214;2023-02-03T09:52:24;0.50;;;0.50;;
64923;SDS011;51436;44.692;39.214;2023-02-03T09:54:57;1.00;;;0.90;;
64923;SDS011;51436;44.692;39.214;2023-02-03T09:57:27;0.25;;;0.25;;
64923;SDS011;51436;44.692;39.214;2023-02-03T10:05:17;0.30;;;0.30;;
64923;SDS011;51436;44.692;39.214;2023-02-03T10:07:59;0.50;;;0.50;;
64923;SDS011;51436;44.692;39.214;2023-02-03T10:10:40;0.88;;;0.80;;
64923;SDS011;51436;44.692;39.214;2023-02-03T10:18:23;0.68;;;0.68;;
64923;SDS011;51436;44.692;39.214;2023-02-03T10:20:56;0.30;;;0.30;;
64923;SDS011;51436;44.692;39.214;2023-02-03T10:23:44;0.40;;;0.40;;
64923;SDS011;51436;44.692;39.214;2023-02-03T10:26:17;0.40;;;0.40;;
64923;SDS011;51436;44.692;39.214;2023-02-03T10:28:50;0.50;;;0.50;;
64923;SDS011;51436;44.692;39.214;2023-02-03T10:31:23;0.50;;;0.50;;
64923;SDS011;51436;44.692;39.214;2023-02-03T10:34:08;0.55;;;0.55;;
64923;SDS011;51436;44.692;39.214;2023-02-03T10:41:49;0.60;;;0.60;;
64923;SDS011;51436;44.692;39.214;2023-02-03T10:44:16;0.50;;;0.50;;
64923;SDS011;51436;44.692;39.214;2023-02-03T10:46:42;0.50;;;0.50;;
64923;SDS011;51436;44.692;39.214;2023-02-03T10:49:10;0.95;;;0.70;;
64923;SDS011;51436;44.692;39.214;2023-02-03T10:51:40;0.50;;;0.50;;
64923;SDS011;51436;44.692;39.214;2023-02-03T10:54:33;1.17;;;0.40;;
64923;SDS011;51436;44.692;39.214;2023-02-03T10:57:05;0.68;;;0.50;;
64923;SDS011;51436;44.692;39.214;2023-02-03T10:59:40;0.40;;;0.40;;
64923;SDS011;51436;44.692;39.214;2023-02-03T11:02:09;0.47;;;0.47;;
64923;SDS011;51436;44.692;39.214;2023-02-03T11:07:44;0.38;;;0.38;;
64923;SDS011;51436;44.692;39.214;2023-02-03T11:10:44;0.30;;;0.30;;
64923;SDS011;51436;44.692;39.214;2023-02-03T11:15:56;1.15;;;0.40;;
64923;SDS011;51436;44.692;39.214;2023-02-03T11:18:40;0.35;;;0.30;;
64923;SDS011;51436;44.692;39.214;2023-02-03T11:26:33;0.28;;;0.28;;
64923;SDS011;51436;44.692;39.214;2023-02-03T11:29:04;0.30;;;0.30;;
64923;SDS011;51436;44.692;39.214;2023-02-03T11:31:35;0.30;;;0.30;;
64923;SDS011;51436;44.692;39.214;2023-02-03T11:34:03;0.30;;;0.30;;
64923;SDS011;51436;44.692;39.214;2023-02-03T11:36:33;0.30;;;0.30;;
64923;SDS011;51436;44.692;39.214;2023-02-03T11:39:10;0.63;;;0.55;;
64923;SDS011;51436;44.692;39.214;2023-02-03T11:41:46;0.65;;;0.50;;
64923;SDS011;51436;44.692;39.214;2023-02-03T11:44:23;1.45;;;0.65;;
64923;SDS011;51436;44.692;39.214;2023-02-03T11:46:55;0.43;;;0.43;;
64923;SDS011;51436;44.692;39.214;2023-02-03T11:52:40;0.40;;;0.40;;
64923;SDS011;51436;44.692;39.214;2023-02-03T11:58:04;0.40;;;0.40;;
64923;SDS011;51436;44.692;39.214;2023-02-03T12:00:52;1.10;;;0.70;;
64923;SDS011;51436;44.692;39.214;2023-02-03T12:03:36;0.60;;;0.60;;
64923;SDS011;51436;44.692;39.214;2023-02-03T12:09:10;0.40;;;0.40;;
64923;SDS011;51436;44.692;39.214;2023-02-03T12:11:56;0.73;;;0.40;;
64923;SDS011;51436;44.692;39.214;2023-02-03T12:14:49;1.00;;;0.63;;
64923;SDS011;51436;44.692;39.214;2023-02-03T12:17:41;2.38;;;0.82;;
64923;SDS011;51436;44.692;39.214;2023-02-03T12:20:30;0.57;;;0.52;;
64923;SDS011;51436;44.692;39.214;2023-02-03T12:23:28;4.80;;;0.93;;
64923;SDS011;51436;44.692;39.214;2023-02-03T12:26:13;2.17;;;1.20;;
64923;SDS011;51436;44.692;39.214;2023-02-03T12:28:49;2.83;;;1.80;;
64923;SDS011;51436;44.692;39.214;2023-02-03T12:31:35;5.95;;;2.63;;
64923;SDS011;51436;44.692;39.214;2023-02-03T12:36:51;2.22;;;1.30;;
64923;SDS011;51436;44.692;39.214;2023-02-03T12:39:35;1.80;;;1.20;;
64923;SDS011;51436;44.692;39.214;2023-02-03T12:44:51;2.78;;;1.95;;
64923;SDS011;51436;44.692;39.214;2023-02-03T12:50:05;0.68;;;0.60;;
64923;SDS011;51436;44.692;39.214;2023-02-03T12:52:50;2.00;;;1.10;;
64923;SDS011;51436;44.692;39.214;2023-02-03T12:55:35;7.78;;;2.42;;
64923;SDS011;51436;44.692;39.214;2023-02-03T12:58:05;2.80;;;1.80;;
64923;SDS011;51436;44.692;39.214;2023-02-03T13:08:51;4.25;;;2.45;;
64923;SDS011;51436;44.692;39.214;2023-02-03T13:12:00;3.92;;;1.15;;
64923;SDS011;51436;44.692;39.214;2023-02-03T13:15:22;2.33;;;1.60;;
64923;SDS011;51436;44.692;39.214;2023-02-03T13:17:58;2.42;;;1.30;;
64923;SDS011;51436;44.692;39.214;2023-02-03T13:20:40;1.05;;;1.05;;
64923;SDS011;51436;44.692;39.214;2023-02-03T13:23:09;3.45;;;1.80;;
64923;SDS011;51436;44.692;39.214;2023-02-03T13:25:45;1.35;;;1.10;;
64923;SDS011;51436;44.692;39.214;2023-02-03T13:34:22;0.60;;;0.60;;
64923;SDS011;51436;44.692;39.214;2023-02-03T13:37:16;0.43;;;0.43;;
64923;SDS011;51436;44.692;39.214;2023-02-03T13:45:42;4.55;;;2.80;;
64923;SDS011;51436;44.692;39.214;2023-02-03T13:50:49;0.60;;;0.60;;
64923;SDS011;51436;44.692;39.214;2023-02-03T13:53:27;1.08;;;0.55;;
64923;SDS011;51436;44.692;39.214;2023-02-03T13:56:04;0.70;;;0.70;;
64923;SDS011;51436;44.692;39.214;2023-02-03T13:58:34;0.73;;;0.70;;
64923;SDS011;51436;44.692;39.214;2023-02-03T14:03:48;3.50;;;0.73;;
64923;SDS011;51436;44.692;39.214;2023-02-03T14:09:17;0.55;;;0.55;;
64923;SDS011;51436;44.692;39.214;2023-02-03T14:14:44;0.50;;;0.50;;
64923;SDS011;51436;44.692;39.214;2023-02-03T14:17:52;0.35;;;0.35;;
64923;SDS011;51436;44.692;39.214;2023-02-03T14:22:59;1.45;;;0.90;;
64923;SDS011;51436;44.692;39.214;2023-02-03T14:25:40;2.10;;;1.05;;
64923;SDS011;51436;44.692;39.214;2023-02-03T14:28:11;0.95;;;0.90;;
64923;SDS011;51436;44.692;39.214;2023-02-03T14:31:07;2.97;;;0.70;;
64923;SDS011;51436;44.692;39.214;2023-02-03T14:33:56;1.02;;;0.90;;
64923;SDS011;51436;44.692;39.214;2023-02-03T14:36:43;3.13;;;1.20;;
64923;SDS011;51436;44.692;39.214;2023-02-03T14:41:47;0.55;;;0.55;;
64923;SDS011;51436;44.692;39.214;2023-02-03T14:44:39;0.68;;;0.68;;
64923;SDS011;51436;44.692;39.214;2023-02-03T14:47:16;0.80;;;0.80;;
64923;SDS011;51436;44.692;39.214;2023-02-03T14:52:47;0.43;;;0.43;;
64923;SDS011;51436;44.692;39.214;2023-02-03T14:58:00;1.73;;;1.17;;
64923;SDS011;51436;44.692;39.214;2023-02-03T15:00:31;0.50;;;0.50;;
64923;SDS011;51436;44.692;39.214;2023-02-03T15:08:01;0.75;;;0.75;;
64923;SDS011;51436;44.692;39.214;2023-02-03T15:10:29;0.68;;;0.68;;
64923;SDS011;51436;44.692;39.214;2023-02-03T15:13:05;0.45;;;0.45;;
64923;SDS011;51436;44.692;39.214;2023-02-03T15:15:48;0.43;;;0.43;;
64923;SDS011;51436;44.692;39.214;2023-02-03T15:18:30;0.88;;;0.68;;
64923;SDS011;51436;44.692;39.214;2023-02-03T15:21:00;0.88;;;0.80;;
64923;SDS011;51436;44.692;39.214;2023-02-03T15:23:28;0.60;;;0.60;;
64923;SDS011;51436;44.692;39.214;2023-02-03T15:26:07;0.70;;;0.68;;
64923;SDS011;51436;44.692;39.214;2023-02-03T15:28:39;0.82;;;0.70;;
64923;SDS011;51436;44.692;39.214;2023-02-03T15:31:15;0.80;;;0.80;;
64923;SDS011;51436;44.692;39.214;2023-02-03T15:33:45;0.60;;;0.60;;
64923;SDS011;51436;44.692;39.214;2023-02-03T15:36:21;2.95;;;0.68;;
64923;SDS011;51436;44.692;39.214;2023-02-03T15:46:39;0.50;;;0.50;;
64923;SDS011;51436;44.692;39.214;2023-02-03T15:57:01;0.30;;;0.30;;
64923;SDS011;51436;44.692;39.214;2023-02-03T15:59:36;0.73;;;0.73;;
64923;SDS011;51436;44.692;39.214;2023-02-03T16:02:13;0.73;;;0.55;;
64923;SDS011;51436;44.692;39.214;2023-02-03T16:04:43;0.60;;;0.60;;
64923;SDS011;51436;44.692;39.214;2023-02-03T16:07:17;0.50;;;0.50;;
64923;SDS011;51436;44.692;39.214;2023-02-03T16:09:55;0.50;;;0.50;;
64923;SDS011;51436;44.692;39.214;2023-02-03T16:12:23;0.70;;;0.70;;
64923;SDS011;51436;44.692;39.214;2023-02-03T16:14:58;0.55;;;0.55;;
64923;SDS011;51436;44.692;39.214;2023-02-03T16:22:43;0.57;;;0.35;;
64923;SDS011;51436;44.692;39.214;2023-02-03T16:25:12;0.70;;;0.70;;
64923;SDS011;51436;44.692;39.214;2023-02-03T16:27:42;0.63;;;0.63;;
64923;SDS011;51436;44.692;39.214;2023-02-03T16:33:09;0.43;;;0.43;;
64923;SDS011;51436;44.692;39.214;2023-02-03T16:35:59;0.32;;;0.32;;
64923;SDS011;51436;44.692;39.214;2023-02-03T16:38:55;0.40;;;0.40;;
64923;SDS011;51436;44.692;39.214;2023-02-03T16:41:44;0.45;;;0.45;;
64923;SDS011;51436;44.692;39.214;2023-02-03T16:44:33;0.50;;;0.50;;
64923;SDS011;51436;44.692;39.214;2023-02-03T16:47:25;0.60;;;0.40;;
64923;SDS011;51436;44.692;39.214;2023-02-03T16:50:16;0.32;;;0.32;;
64923;SDS011;51436;44.692;39.214;2023-02-03T16:53:11;0.30;;;0.30;;
64923;SDS011;51436;44.692;39.214;2023-02-03T16:55:39;0.40;;;0.40;;
64923;SDS011;51436;44.692;39.214;2023-02-03T16:58:06;0.65;;;0.60;;
64923;SDS011;51436;44.692;39.214;2023-02-03T17:00:35;0.50;;;0.50;;
64923;SDS011;51436;44.692;39.214;2023-02-03T17:03:06;0.50;;;0.50;;
64923;SDS011;51436;44.692;39.214;2023-02-03T17:05:36;0.45;;;0.45;;
64923;SDS011;51436;44.692;39.214;2023-02-03T17:08:03;0.30;;;0.30;;
64923;SDS011;51436;44.692;39.214;2023-02-03T17:10:32;0.70;;;0.55;;
64923;SDS011;51436;44.692;39.214;2023-02-03T17:12:59;1.00;;;0.65;;
64923;SDS011;51436;44.692;39.214;2023-02-03T17:15:26;0.40;;;0.40;;
64923;SDS011;51436;44.692;39.214;2023-02-03T17:17:52;1.63;;;0.73;;
64923;SDS011;51436;44.692;39.214;2023-02-03T17:20:19;0.68;;;0.60;;
64923;SDS011;51436;44.692;39.214;2023-02-03T17:22:46;0.30;;;0.30;;
64923;SDS011;51436;44.692;39.214;2023-02-03T17:25:16;1.67;;;0.43;;
64923;SDS011;51436;44.692;39.214;2023-02-03T17:27:42;0.75;;;0.63;;
64923;SDS011;51436;44.692;39.214;2023-02-03T17:30:09;0.45;;;0.45;;
64923;SDS011;51436;44.692;39.214;2023-02-03T17:32:39;0.50;;;0.50;;
64923;SDS011;51436;44.692;39.214;2023-02-03T17:35:05;0.40;;;0.40;;
64923;SDS011;51436;44.692;39.214;2023-02-03T17:37:32;0.38;;;0.38;;
64923;SDS011;51436;44.692;39.214;2023-02-03T17:39:59;0.20;;;0.20;;
64923;SDS011;51436;44.692;39.214;2023-02-03T17:42:25;0.40;;;0.40;;
64923;SDS011;51436;44.692;39.214;2023-02-03T17:44:52;0.45;;;0.45;;
64923;SDS011;51436;44.692;39.214;2023-02-03T17:47:18;0.38;;;0.38;;